Time;durP1;ratioP1;P1;durP2;ratioP2;P2;SDS_P1;SDS_P2;PMS_P1;PMS_P2;Temp;Humidity;BMP_temperature;BMP_pressure;BME280_temperature;BME280_humidity;BME280_pressure;Samples;Min_cycle;Max_cycle;Signal;HPM_P1;HPM_P2
2021/10/30 00:01:21;;;;;;;19.10;12.43;;;11.40;99.90;;;;;;5073950;28;20051;-51
2021/10/30 00:04:26;;;;;;;19.95;12.48;;;11.30;99.90;;;;;;5074080;28;20044;-50
2021/10/30 00:07:30;;;;;;;25.60;15.50;;;11.30;99.90;;;;;;5073650;28;20047;-52
2021/10/30 00:10:34;;;;;;;26.10;17.08;;;11.20;99.90;;;;;;5073816;28;20418;-52
2021/10/30 00:13:38;;;;;;;24.25;14.52;;;10.80;99.90;;;;;;5073455;28;20043;-54
2021/10/30 00:16:43;;;;;;;22.63;14.63;;;10.80;99.90;;;;;;5073447;28;20044;-52
2021/10/30 00:19:48;;;;;;;24.30;14.57;;;10.70;99.90;;;;;;5073369;28;20517;-51
2021/10/30 00:22:52;;;;;;;22.70;13.77;;;10.70;99.90;;;;;;5073604;28;20521;-51
2021/10/30 00:25:56;;;;;;;22.77;14.48;;;10.60;99.90;;;;;;5073194;28;20035;-52
2021/10/30 00:29:00;;;;;;;24.40;15.23;;;10.60;99.90;;;;;;5072849;28;20062;-51
2021/10/30 00:32:06;;;;;;;23.50;14.95;;;10.60;99.90;;;;;;5073339;28;20039;-50
2021/10/30 00:35:10;;;;;;;22.50;13.80;;;10.50;99.90;;;;;;5073448;28;20048;-53
2021/10/30 00:38:14;;;;;;;23.92;14.25;;;10.50;99.90;;;;;;5073285;28;20052;-53
2021/10/30 00:41:18;;;;;;;23.30;14.35;;;10.40;99.90;;;;;;5072825;28;20043;-53
2021/10/30 00:44:22;;;;;;;24.98;14.20;;;10.40;99.90;;;;;;5073572;28;20047;-52
2021/10/30 00:47:26;;;;;;;20.38;13.77;;;10.30;99.90;;;;;;5073317;28;20616;-52
2021/10/30 00:50:30;;;;;;;23.35;15.32;;;10.30;99.90;;;;;;5073142;28;20043;-52
2021/10/30 00:53:35;;;;;;;24.40;16.20;;;10.20;99.90;;;;;;5073177;28;20493;-50
2021/10/30 00:56:42;;;;;;;26.75;17.77;;;10.20;99.90;;;;;;5073524;28;20055;-51
2021/10/30 00:59:47;;;;;;;31.73;18.60;;;10.20;99.90;;;;;;5072861;28;20051;-54
2021/10/30 01:02:52;;;;;;;29.67;18.77;;;10.20;99.90;;;;;;5073022;28;20514;-50
2021/10/30 01:05:56;;;;;;;31.15;19.67;;;10.30;99.90;;;;;;5073083;28;20055;-57
2021/10/30 01:09:01;;;;;;;31.15;17.60;;;10.40;99.90;;;;;;5072786;28;20043;-54
2021/10/30 01:12:05;;;;;;;29.40;17.58;;;10.40;99.90;;;;;;5072853;28;20067;-51
2021/10/30 01:15:11;;;;;;;31.92;19.55;;;10.40;99.90;;;;;;5072790;28;20051;-51
2021/10/30 01:18:15;;;;;;;32.85;18.42;;;10.30;99.90;;;;;;5072515;28;20047;-54
2021/10/30 01:21:30;;;;;;;31.65;18.90;;;10.00;99.90;;;;;;5072215;28;20055;-53
2021/10/30 01:24:34;;;;;;;34.60;19.45;;;9.90;99.90;;;;;;5072429;28;20502;-54
2021/10/30 01:27:44;;;;;;;34.30;19.45;;;9.90;99.90;;;;;;5072003;28;20040;-52
2021/10/30 01:30:48;;;;;;;31.63;18.90;;;9.90;99.90;;;;;;5071923;28;20115;-50
2021/10/30 01:33:52;;;;;;;29.35;17.92;;;9.80;99.90;;;;;;5072218;28;20055;-51
2021/10/30 01:36:56;;;;;;;27.83;17.58;;;9.80;99.90;;;;;;5072246;28;20048;-51
2021/10/30 01:40:00;;;;;;;38.97;20.05;;;9.70;99.90;;;;;;5071647;28;20418;-50
2021/10/30 01:43:04;;;;;;;29.73;18.98;;;9.60;99.90;;;;;;5071121;28;20402;-50
2021/10/30 01:46:08;;;;;;;33.25;19.38;;;9.60;99.90;;;;;;5072074;28;20039;-52
2021/10/30 01:49:12;;;;;;;30.77;18.95;;;9.60;99.90;;;;;;5071606;28;20047;-50
2021/10/30 01:52:16;;;;;;;29.60;18.70;;;9.70;99.90;;;;;;5071720;28;20414;-51
2021/10/30 01:55:21;;;;;;;25.40;16.17;;;9.70;99.90;;;;;;5071671;28;20426;-51
2021/10/30 01:58:26;;;;;;;29.38;17.95;;;9.70;99.90;;;;;;5071508;28;20051;-53
2021/10/30 02:01:31;;;;;;;26.38;17.38;;;9.70;99.90;;;;;;5071273;28;20146;-51
2021/10/30 02:04:37;;;;;;;30.17;17.25;;;9.70;99.90;;;;;;5071261;28;20040;-50
2021/10/30 02:07:41;;;;;;;27.65;16.33;;;9.60;99.90;;;;;;5071690;28;20043;-51
2021/10/30 02:10:45;;;;;;;33.25;19.52;;;9.50;99.90;;;;;;5071576;28;20134;-51
2021/10/30 02:13:49;;;;;;;35.60;22.17;;;9.50;99.90;;;;;;5071499;28;20313;-50
2021/10/30 02:16:53;;;;;;;35.97;22.80;;;9.50;99.90;;;;;;5071529;28;20044;-52
2021/10/30 02:19:57;;;;;;;33.15;21.17;;;9.50;99.90;;;;;;5070987;28;20526;-51
2021/10/30 02:23:02;;;;;;;29.90;19.75;;;9.50;99.90;;;;;;5070963;28;20047;-51
2021/10/30 02:26:06;;;;;;;30.80;19.63;;;9.40;99.90;;;;;;5070894;28;20431;-53
2021/10/30 02:29:11;;;;;;;35.85;21.52;;;9.30;99.90;;;;;;5070942;28;20048;-53
2021/10/30 02:32:15;;;;;;;36.15;20.25;;;9.30;99.90;;;;;;5070811;28;20047;-52
2021/10/30 02:35:20;;;;;;;33.72;21.58;;;9.20;99.90;;;;;;5071040;28;20047;-51
2021/10/30 02:38:26;;;;;;;34.83;22.55;;;9.20;99.90;;;;;;5070912;28;20402;-51
2021/10/30 02:41:30;;;;;;;39.30;22.58;;;9.20;99.90;;;;;;5070011;28;20418;-52
2021/10/30 02:44:34;;;;;;;38.47;23.35;;;9.10;99.90;;;;;;5070686;28;20506;-51
2021/10/30 02:47:40;;;;;;;41.83;24.42;;;9.10;99.90;;;;;;5070760;28;20034;-51
2021/10/30 02:50:44;;;;;;;39.00;25.35;;;9.10;99.90;;;;;;5070534;28;20035;-53
2021/10/30 02:53:48;;;;;;;43.83;23.60;;;9.00;99.90;;;;;;5143634;22;20051;-49
2021/10/30 02:56:52;;;;;;;43.33;25.63;;;9.00;99.90;;;;;;5070657;28;20052;-52
2021/10/30 02:59:56;;;;;;;40.85;24.60;;;9.00;99.90;;;;;;5070519;28;20510;-48
2021/10/30 03:03:00;;;;;;;44.47;27.52;;;9.00;99.90;;;;;;5070575;28;20051;-50
2021/10/30 03:06:04;;;;;;;34.20;21.45;;;9.00;99.90;;;;;;5070876;28;20035;-48
2021/10/30 03:09:09;;;;;;;35.55;21.17;;;9.00;99.90;;;;;;5070825;28;20036;-48
2021/10/30 03:12:13;;;;;;;40.28;22.58;;;8.90;99.90;;;;;;5070298;28;20067;-51
2021/10/30 03:15:18;;;;;;;36.75;21.25;;;9.00;99.90;;;;;;5070874;28;20047;-48
2021/10/30 03:18:22;;;;;;;36.35;21.95;;;8.90;99.90;;;;;;5069773;28;20518;-50
2021/10/30 03:21:26;;;;;;;36.03;23.17;;;8.90;99.90;;;;;;5070432;28;20055;-49
2021/10/30 03:24:30;;;;;;;35.47;21.40;;;8.80;99.90;;;;;;5070704;28;20055;-49
2021/10/30 03:27:34;;;;;;;35.28;21.55;;;8.80;99.90;;;;;;5070807;28;20055;-51
2021/10/30 03:30:38;;;;;;;34.35;21.30;;;8.80;99.90;;;;;;5070711;28;20056;-49
2021/10/30 03:33:45;;;;;;;33.67;20.10;;;8.70;99.90;;;;;;5070521;28;20126;-52
2021/10/30 03:36:49;;;;;;;31.55;19.67;;;8.60;99.90;;;;;;5070703;28;20390;-49
2021/10/30 03:39:53;;;;;;;36.17;22.55;;;8.50;99.90;;;;;;5070183;28;20032;-48
2021/10/30 03:42:57;;;;;;;39.75;21.40;;;8.50;99.90;;;;;;5070395;28;20063;-48
2021/10/30 03:46:01;;;;;;;32.85;20.83;;;8.50;99.90;;;;;;5070606;28;20051;-46
2021/10/30 03:49:05;;;;;;;39.50;23.60;;;8.50;99.90;;;;;;5070259;28;20040;-48
2021/10/30 03:52:08;;;;;;;31.40;18.63;;;8.60;99.90;;;;;;5069687;28;20047;-48
2021/10/30 03:55:13;;;;;;;32.25;16.70;;;8.60;99.90;;;;;;5070304;28;20060;-48
2021/10/30 03:58:18;;;;;;;28.60;16.67;;;8.60;99.90;;;;;;5070236;28;20040;-48
2021/10/30 04:01:22;;;;;;;33.67;18.10;;;8.70;99.90;;;;;;5070288;28;20055;-48
2021/10/30 04:04:25;;;;;;;28.50;16.70;;;8.70;99.90;;;;;;5070870;28;20514;-48
2021/10/30 04:07:29;;;;;;;25.05;15.63;;;8.70;99.90;;;;;;5070073;28;20048;-48
2021/10/30 04:10:34;;;;;;;27.00;16.45;;;8.70;99.90;;;;;;5069766;28;20047;-48
2021/10/30 04:13:39;;;;;;;28.20;16.63;;;8.70;99.90;;;;;;5069793;28;20039;-49
2021/10/30 04:16:43;;;;;;;28.10;17.05;;;8.70;99.90;;;;;;5069822;28;20040;-50
2021/10/30 04:19:47;;;;;;;35.90;16.83;;;8.70;99.90;;;;;;5070131;28;20498;-47
2021/10/30 04:22:51;;;;;;;24.20;15.38;;;8.70;99.90;;;;;;5069434;28;20039;-47
2021/10/30 04:25:55;;;;;;;23.35;16.02;;;8.60;99.90;;;;;;5069673;28;20050;-50
2021/10/30 04:28:59;;;;;;;23.92;15.70;;;8.60;99.90;;;;;;5071285;28;20041;-48
2021/10/30 04:32:05;;;;;;;26.02;15.45;;;8.60;99.90;;;;;;5071839;28;20046;-48
2021/10/30 04:35:11;;;;;;;21.45;14.05;;;8.60;99.90;;;;;;5073297;28;20052;-48
2021/10/30 04:38:15;;;;;;;23.73;15.15;;;8.70;99.90;;;;;;5073516;28;20199;-48
2021/10/30 04:41:19;;;;;;;19.25;10.95;;;8.80;99.90;;;;;;5073215;28;20055;-52
2021/10/30 04:44:23;;;;;;;19.00;10.73;;;8.80;99.90;;;;;;5072661;28;20047;-52
2021/10/30 04:47:27;;;;;;;20.52;13.70;;;8.80;99.90;;;;;;5073598;28;20055;-51
2021/10/30 04:50:31;;;;;;;22.95;13.93;;;8.50;99.90;;;;;;5072954;28;20106;-49
2021/10/30 04:53:37;;;;;;;30.38;18.45;;;8.30;99.90;;;;;;5072619;28;20044;-49
2021/10/30 04:56:41;;;;;;;32.78;18.20;;;7.90;99.90;;;;;;5072783;28;20549;-46
2021/10/30 04:59:46;;;;;;;31.23;18.80;;;7.70;99.90;;;;;;5072749;28;20411;-51
2021/10/30 05:02:50;;;;;;;35.92;20.23;;;7.60;99.90;;;;;;5072457;28;20059;-50
2021/10/30 05:05:54;;;;;;;32.05;19.15;;;7.40;99.90;;;;;;5072611;28;20048;-49
2021/10/30 05:08:58;;;;;;;60.13;21.60;;;7.30;99.90;;;;;;5072504;28;20044;-51
2021/10/30 05:12:02;;;;;;;46.90;20.73;;;7.20;99.90;;;;;;5072457;28;20047;-51
2021/10/30 05:15:06;;;;;;;40.10;21.55;;;7.10;99.90;;;;;;5072523;28;20052;-49
2021/10/30 05:18:11;;;;;;;175.43;24.08;;;7.10;99.90;;;;;;5072555;28;20403;-52
2021/10/30 05:21:15;;;;;;;47.42;21.45;;;7.10;99.90;;;;;;5072335;28;20052;-48
2021/10/30 05:24:19;;;;;;;38.28;21.50;;;7.10;99.90;;;;;;5067031;28;20059;-48
2021/10/30 05:27:23;;;;;;;35.95;18.85;;;7.10;99.90;;;;;;5051747;28;20063;-48
2021/10/30 05:30:27;;;;;;;40.53;21.15;;;7.20;99.90;;;;;;5051671;28;20048;-48
2021/10/30 05:33:31;;;;;;;33.90;20.80;;;7.20;99.90;;;;;;5051467;28;20419;-49
2021/10/30 05:36:39;;;;;;;51.05;22.42;;;7.20;99.90;;;;;;5051562;28;20040;-51
2021/10/30 05:40:12;;;;;;;41.78;22.80;;;7.20;99.90;;;;;;5049945;28;20040;-48
2021/10/30 05:43:17;;;;;;;46.33;26.10;;;7.10;99.90;;;;;;5051641;28;20055;-50
2021/10/30 05:46:21;;;;;;;43.88;24.23;;;7.00;99.90;;;;;;5051944;28;20048;-49
2021/10/30 05:49:26;;;;;;;45.40;26.35;;;7.00;99.90;;;;;;5051807;28;20048;-48
2021/10/30 05:52:30;;;;;;;41.95;25.08;;;6.90;99.90;;;;;;5055550;28;20549;-48
2021/10/30 05:55:34;;;;;;;40.17;24.17;;;7.10;99.90;;;;;;5071553;28;20258;-46
2021/10/30 05:58:38;;;;;;;38.20;22.92;;;7.10;99.90;;;;;;5071276;28;20513;-48
2021/10/30 06:01:42;;;;;;;39.20;23.05;;;7.20;99.90;;;;;;5071462;28;20051;-48
2021/10/30 06:04:46;;;;;;;38.05;22.75;;;7.20;99.90;;;;;;5071414;28;20044;-48
2021/10/30 06:07:50;;;;;;;42.63;23.15;;;7.30;99.90;;;;;;5071551;28;20051;-47
2021/10/30 06:10:54;;;;;;;37.28;23.05;;;7.60;99.90;;;;;;5071563;28;20047;-47
2021/10/30 06:13:58;;;;;;;36.28;21.75;;;7.90;99.90;;;;;;5071080;28;20048;-48
2021/10/30 06:17:02;;;;;;;32.75;20.52;;;8.00;99.90;;;;;;5071278;28;20505;-48
2021/10/30 06:20:07;;;;;;;35.45;21.98;;;8.00;99.90;;;;;;5071017;28;20044;-48
2021/10/30 06:23:13;;;;;;;36.05;21.48;;;8.10;99.90;;;;;;5070889;28;20032;-48
2021/10/30 06:26:19;;;;;;;36.90;18.92;;;8.40;99.90;;;;;;5071114;28;20047;-49
2021/10/30 06:29:24;;;;;;;24.92;14.85;;;10.40;99.90;;;;;;5070837;28;20428;-48
2021/10/30 06:32:29;;;;;;;21.70;13.00;;;12.50;99.90;;;;;;5071018;28;20047;-47
2021/10/30 06:35:33;;;;;;;21.58;12.07;;;14.30;99.90;;;;;;5071000;28;20048;-48
2021/10/30 06:38:37;;;;;;;17.70;11.68;;;15.60;99.90;;;;;;5070852;28;20048;-45
2021/10/30 06:41:41;;;;;;;15.70;10.88;;;16.30;99.90;;;;;;5070794;28;20055;-54
2021/10/30 06:44:45;;;;;;;18.38;11.10;;;16.70;99.90;;;;;;5070773;28;20052;-48
2021/10/30 06:47:49;;;;;;;16.08;10.90;;;17.40;99.90;;;;;;5071023;28;20518;-51
2021/10/30 06:50:54;;;;;;;14.70;10.48;;;17.30;99.90;;;;;;5070646;28;20040;-49
2021/10/30 06:53:58;;;;;;;18.30;11.57;;;17.40;99.90;;;;;;5070447;28;20542;-50
2021/10/30 06:57:04;;;;;;;14.25;10.60;;;17.90;99.90;;;;;;5071011;28;20043;-48
2021/10/30 07:00:09;;;;;;;16.60;11.25;;;18.50;99.90;;;;;;5050652;28;20040;-51
2021/10/30 07:03:13;;;;;;;17.00;10.75;;;19.20;99.90;;;;;;5050787;28;20048;-49
2021/10/30 07:06:17;;;;;;;16.10;10.45;;;20.20;99.50;;;;;;5051046;28;20056;-48
2021/10/30 07:09:21;;;;;;;14.30;9.35;;;20.60;97.20;;;;;;5049851;28;20048;-48
2021/10/30 07:12:26;;;;;;;15.25;10.25;;;20.40;97.00;;;;;;5049869;28;20112;-52
2021/10/30 07:15:31;;;;;;;14.43;10.38;;;20.70;96.60;;;;;;5050139;28;20044;-48
2021/10/30 07:18:35;;;;;;;16.88;8.98;;;21.60;94.40;;;;;;5050250;28;20392;-51
2021/10/30 07:21:39;;;;;;;13.07;9.23;;;22.50;93.00;;;;;;5050548;28;20052;-51
2021/10/30 07:24:43;;;;;;;11.60;9.02;;;21.80;93.40;;;;;;5049306;28;20052;-48
2021/10/30 07:27:49;;;;;;;11.27;8.77;;;22.60;92.60;;;;;;5049459;28;20044;-48
2021/10/30 07:30:53;;;;;;;12.48;8.63;;;23.70;91.60;;;;;;5050533;28;20051;-50
2021/10/30 07:33:57;;;;;;;10.93;8.40;;;24.60;90.00;;;;;;5050305;28;20048;-51
2021/10/30 07:37:01;;;;;;;15.02;8.85;;;25.40;87.40;;;;;;5050573;28;20491;-50
2021/10/30 07:40:06;;;;;;;10.50;8.70;;;26.20;86.20;;;;;;5050332;28;20044;-48
2021/10/30 07:43:10;;;;;;;10.93;8.00;;;26.20;84.50;;;;;;5050230;28;20096;-48
2021/10/30 07:46:14;;;;;;;12.52;9.60;;;26.90;83.00;;;;;;5050354;28;20064;-48
2021/10/30 07:49:18;;;;;;;15.50;12.07;;;21.50;85.70;;;;;;5049893;28;20059;-48
2021/10/30 07:52:22;;;;;;;13.00;11.00;;;17.90;92.50;;;;;;5050090;28;20055;-48
2021/10/30 07:55:27;;;;;;;15.50;12.05;;;17.90;93.60;;;;;;5050208;28;20056;-50
2021/10/30 07:58:31;;;;;;;17.27;10.57;;;18.90;92.80;;;;;;5050095;28;20052;-47
2021/10/30 08:01:36;;;;;;;13.65;10.80;;;20.10;91.80;;;;;;5050441;28;20076;-48
2021/10/30 08:04:40;;;;;;;14.27;10.38;;;20.20;91.50;;;;;;5052981;28;20076;-48
2021/10/30 08:07:44;;;;;;;12.55;10.13;;;21.00;91.80;;;;;;5054123;28;20044;-52
2021/10/30 08:10:49;;;;;;;13.77;10.13;;;23.60;89.40;;;;;;5054346;28;20052;-51
2021/10/30 08:13:52;;;;;;;14.60;10.68;;;26.20;84.60;;;;;;5054016;28;20040;-49
2021/10/30 08:16:56;;;;;;;14.90;12.10;;;26.90;82.10;;;;;;5053780;28;20399;-49
2021/10/30 08:20:02;;;;;;;11.18;9.60;;;28.20;78.10;;;;;;5053924;28;20404;-49
2021/10/30 08:23:07;;;;;;;12.48;10.68;;;28.30;77.70;;;;;;5054076;28;20055;-49
2021/10/30 08:26:11;;;;;;;11.20;10.00;;;27.40;76.30;;;;;;5053040;28;20056;-52
2021/10/30 08:29:15;;;;;;;16.40;10.05;;;24.60;80.90;;;;;;5053736;28;20052;-48
2021/10/30 08:32:19;;;;;;;15.45;13.15;;;23.50;83.10;;;;;;5053174;28;20052;-49
2021/10/30 08:35:23;;;;;;;20.52;16.60;;;22.20;86.60;;;;;;5053514;28;20056;-48
2021/10/30 08:38:27;;;;;;;24.02;19.63;;;20.80;87.50;;;;;;5053343;28;20040;-48
2021/10/30 08:41:31;;;;;;;20.55;16.00;;;20.40;89.20;;;;;;5053069;28;20048;-48
2021/10/30 08:44:37;;;;;;;12.27;10.93;;;21.20;86.70;;;;;;5053209;28;20415;-50
2021/10/30 08:47:45;;;;;;;14.23;11.07;;;22.60;85.90;;;;;;5052988;28;20060;-48
2021/10/30 08:50:50;;;;;;;19.80;12.20;;;23.30;84.60;;;;;;5053089;28;20032;-48
2021/10/30 08:53:55;;;;;;;17.40;14.18;;;24.60;82.00;;;;;;5052511;28;20045;-51
2021/10/30 08:56:59;;;;;;;18.30;14.27;;;25.50;81.40;;;;;;5052905;28;20052;-50
2021/10/30 09:00:25;;;;;;;15.05;13.15;;;26.50;78.50;;;;;;5052640;28;20044;-51
2021/10/30 09:03:29;;;;;;;16.25;13.10;;;26.00;78.40;;;;;;5052689;28;20052;-52
2021/10/30 09:06:38;;;;;;;15.55;13.63;;;27.90;75.80;;;;;;5052281;28;20051;-50
2021/10/30 09:09:43;;;;;;;15.93;12.13;;;25.60;77.80;;;;;;5052469;28;20534;-49
2021/10/30 09:12:58;;;;;;;13.77;11.57;;;27.40;77.80;;;;;;5052238;28;20047;-49
2021/10/30 09:16:04;;;;;;;14.40;11.80;;;28.10;75.40;;;;;;5052263;28;20044;-49
2021/10/30 09:19:10;;;;;;;17.65;12.52;;;30.00;73.00;;;;;;5052665;28;20407;-49
2021/10/30 09:22:16;;;;;;;15.18;10.60;;;32.00;71.20;;;;;;5052777;28;20403;-49
2021/10/30 09:25:21;;;;;;;15.55;11.80;;;33.70;69.00;;;;;;5052454;28;20534;-49
2021/10/30 09:28:27;;;;;;;13.45;11.30;;;35.30;66.30;;;;;;5052366;28;20403;-49
2021/10/30 09:31:31;;;;;;;12.98;10.77;;;36.20;64.00;;;;;;5052167;28;20047;-49
2021/10/30 09:34:35;;;;;;;14.38;10.55;;;36.00;63.00;;;;;;5052264;28;20048;-49
2021/10/30 09:37:39;;;;;;;12.23;9.38;;;36.80;61.90;;;;;;5051370;28;20040;-49
2021/10/30 09:40:43;;;;;;;12.75;9.73;;;37.40;60.80;;;;;;5052089;28;20611;-50
2021/10/30 09:43:54;;;;;;;12.40;8.90;;;37.40;59.90;;;;;;5051015;28;20044;-49
2021/10/30 09:46:59;;;;;;;11.85;9.25;;;34.60;59.50;;;;;;5051321;28;20044;-48
2021/10/30 09:50:21;;;;;;;14.52;9.50;;;33.40;60.70;;;;;;5051862;28;20107;-48
2021/10/30 09:53:30;;;;;;;12.18;9.40;;;26.90;67.90;;;;;;5051190;28;20064;-48
2021/10/30 09:56:48;;;;;;;12.45;8.57;;;27.40;70.50;;;;;;5051226;28;20052;-51
2021/10/30 09:59:54;;;;;;;11.48;10.00;;;29.90;67.10;;;;;;5051163;28;20044;-48
2021/10/30 10:03:01;;;;;;;10.30;8.70;;;31.50;65.70;;;;;;5050794;28;20040;-52
2021/10/30 10:06:08;;;;;;;11.65;9.68;;;33.60;64.00;;;;;;5050682;28;20044;-49
2021/10/30 10:09:14;;;;;;;13.73;9.45;;;34.60;61.40;;;;;;5051194;28;20530;-49
2021/10/30 10:12:18;;;;;;;15.18;10.82;;;32.50;62.70;;;;;;5051628;28;20059;-49
2021/10/30 10:15:22;;;;;;;12.40;11.10;;;31.20;62.30;;;;;;5051423;28;20341;-48
2021/10/30 10:18:26;;;;;;;15.48;11.88;;;27.70;65.00;;;;;;5050539;28;20545;-52
2021/10/30 10:21:34;;;;;;;14.77;11.10;;;27.40;69.10;;;;;;5051023;28;20060;-51
2021/10/30 10:24:39;;;;;;;12.85;10.85;;;28.20;68.00;;;;;;5050948;28;20044;-48
2021/10/30 10:27:43;;;;;;;17.90;11.13;;;31.20;65.90;;;;;;5050171;28;20040;-50
2021/10/30 10:30:55;;;;;;;10.93;9.82;;;29.90;63.80;;;;;;5051421;28;20056;-49
2021/10/30 10:34:10;;;;;;;10.85;9.52;;;30.80;64.70;;;;;;5051059;28;20052;-48
2021/10/30 10:37:14;;;;;;;11.65;10.13;;;28.80;65.80;;;;;;5050287;28;20052;-52
2021/10/30 10:40:30;;;;;;;11.75;8.90;;;31.00;65.30;;;;;;5050354;28;20052;-49
2021/10/30 10:43:44;;;;;;;13.13;8.75;;;32.20;64.80;;;;;;5050751;28;20178;-49
2021/10/30 10:46:59;;;;;;;10.65;9.13;;;33.60;62.20;;;;;;5050300;28;20043;-50
2021/10/30 10:50:12;;;;;;;11.80;9.43;;;33.20;63.30;;;;;;5050441;28;20109;-48
2021/10/30 10:53:18;;;;;;;12.82;9.93;;;31.10;65.10;;;;;;5050218;28;20055;-49
2021/10/30 10:56:22;;;;;;;13.50;9.55;;;29.90;65.40;;;;;;5050354;28;20052;-49
2021/10/30 10:59:42;;;;;;;9.80;8.80;;;31.10;65.00;;;;;;5049988;28;20462;-49
2021/10/30 11:02:49;;;;;;;12.07;9.73;;;33.30;63.80;;;;;;5050290;28;20044;-49
2021/10/30 11:05:57;;;;;;;13.93;8.60;;;33.70;62.30;;;;;;5050306;28;20056;-49
2021/10/30 11:09:16;;;;;;;12.27;8.65;;;33.90;62.90;;;;;;5050177;28;20059;-50
2021/10/30 11:12:25;;;;;;;11.70;8.82;;;34.50;61.90;;;;;;5050111;28;20061;-51
2021/10/30 11:15:48;;;;;;;11.02;8.20;;;31.60;64.10;;;;;;5050280;28;20081;-49
2021/10/30 11:19:01;;;;;;;12.15;8.70;;;32.70;64.00;;;;;;5049871;28;20060;-49
2021/10/30 11:22:15;;;;;;;13.05;9.73;;;32.00;63.40;;;;;;5050137;28;20522;-51
2021/10/30 11:25:20;;;;;;;26.05;18.88;;;29.70;65.60;;;;;;5050694;28;20048;-52
2021/10/30 11:28:24;;;;;;;30.33;19.75;;;29.50;67.30;;;;;;5050015;28;20048;-49
2021/10/30 11:31:30;;;;;;;22.25;16.17;;;32.40;64.50;;;;;;5050223;28;20044;-52
2021/10/30 11:34:34;;;;;;;17.48;10.70;;;31.80;63.90;;;;;;5050149;28;20055;-52
2021/10/30 11:37:39;;;;;;;18.10;12.98;;;27.60;69.00;;;;;;5049655;28;20044;-52
2021/10/30 11:40:55;;;;;;;17.15;11.00;;;28.30;68.40;;;;;;5054314;28;20506;-50
2021/10/30 11:44:08;;;;;;;12.23;10.20;;;28.20;69.50;;;;;;5054112;28;20063;-51
2021/10/30 11:47:12;;;;;;;13.88;7.70;;;30.90;66.50;;;;;;5054141;28;20498;-53
2021/10/30 11:50:16;;;;;;;15.60;9.52;;;30.30;66.30;;;;;;5054090;28;20052;-51
2021/10/30 11:53:21;;;;;;;13.10;9.13;;;31.40;65.20;;;;;;5054072;28;20047;-48
2021/10/30 11:56:29;;;;;;;13.65;10.07;;;29.30;67.30;;;;;;5053543;28;20044;-52
2021/10/30 11:59:33;;;;;;;16.58;8.13;;;30.40;66.10;;;;;;5053609;28;20531;-52
2021/10/30 12:02:37;;;;;;;10.75;8.35;;;31.30;64.30;;;;;;5053197;28;20044;-49
2021/10/30 12:05:43;;;;;;;12.10;7.85;;;31.10;63.80;;;;;;5053624;28;20055;-52
2021/10/30 12:08:47;;;;;;;11.82;7.10;;;31.60;65.80;;;;;;5053176;28;20043;-53
2021/10/30 12:11:55;;;;;;;10.48;7.50;;;31.10;64.10;;;;;;5053074;28;20052;-52
2021/10/30 12:15:00;;;;;;;9.68;6.93;;;29.50;65.70;;;;;;5053463;28;20044;-51
2021/10/30 12:18:04;;;;;;;11.90;6.75;;;31.70;64.40;;;;;;5052882;28;20408;-49
2021/10/30 12:21:13;;;;;;;12.75;7.07;;;33.20;63.10;;;;;;5053298;28;20048;-50
2021/10/30 12:24:28;;;;;;;14.45;8.98;;;30.60;65.20;;;;;;5052833;28;20052;-49
2021/10/30 12:27:48;;;;;;;11.65;7.25;;;29.70;63.90;;;;;;5052785;28;20043;-52
2021/10/30 12:30:52;;;;;;;25.20;15.38;;;29.20;66.40;;;;;;5053103;28;20390;-51
2021/10/30 12:33:58;;;;;;;10.90;7.47;;;31.60;63.90;;;;;;5052924;28;20522;-51
2021/10/30 12:37:13;;;;;;;8.60;5.72;;;32.80;63.20;;;;;;5052826;28;20044;-51
2021/10/30 12:40:23;;;;;;;9.32;5.68;;;30.80;64.20;;;;;;5052935;28;20051;-49
2021/10/30 12:43:31;;;;;;;8.68;6.03;;;32.40;62.50;;;;;;5052637;28;20044;-48
2021/10/30 12:46:56;;;;;;;8.48;5.38;;;32.80;60.90;;;;;;5052830;28;20036;-48
2021/10/30 12:50:04;;;;;;;9.38;4.53;;;31.10;63.30;;;;;;5052279;28;20048;-49
2021/10/30 12:53:34;;;;;;;7.63;4.90;;;32.50;61.70;;;;;;5052860;28;20621;-48
2021/10/30 12:56:42;;;;;;;9.63;5.38;;;32.40;61.50;;;;;;5052729;28;20052;-51
2021/10/30 12:59:46;;;;;;;5.97;4.35;;;31.00;61.30;;;;;;5052221;28;20048;-50
2021/10/30 13:02:50;;;;;;;9.18;4.60;;;29.40;63.40;;;;;;5052422;28;20048;-48
2021/10/30 13:05:56;;;;;;;9.50;5.25;;;27.60;64.70;;;;;;5052387;28;20048;-53
2021/10/30 13:09:06;;;;;;;9.13;5.05;;;28.30;65.10;;;;;;5052242;28;20052;-52
2021/10/30 13:12:10;;;;;;;10.13;5.00;;;28.40;66.60;;;;;;5052148;28;20114;-48
2021/10/30 13:15:14;;;;;;;11.40;5.70;;;28.90;65.40;;;;;;5052443;28;20426;-48
2021/10/30 13:18:18;;;;;;;10.98;6.43;;;28.30;65.80;;;;;;5052255;28;20417;-49
2021/10/30 13:21:25;;;;;;;8.85;6.70;;;26.80;67.70;;;;;;5052148;28;20052;-49
2021/10/30 13:24:29;;;;;;;14.35;6.20;;;27.70;67.40;;;;;;5051847;28;20052;-51
2021/10/30 13:27:34;;;;;;;9.27;5.57;;;26.00;67.40;;;;;;5052102;28;20052;-48
2021/10/30 13:30:40;;;;;;;9.90;5.05;;;26.90;66.70;;;;;;5052010;28;20048;-48
2021/10/30 13:33:45;;;;;;;7.22;5.38;;;27.30;67.20;;;;;;5052002;28;20434;-48
2021/10/30 13:36:50;;;;;;;7.47;5.18;;;26.30;68.30;;;;;;5052030;28;20506;-50
2021/10/30 13:39:54;;;;;;;11.13;7.00;;;25.60;70.10;;;;;;5051562;28;20056;-48
2021/10/30 13:42:59;;;;;;;10.73;5.90;;;25.40;70.30;;;;;;5051503;28;20419;-48
2021/10/30 13:46:03;;;;;;;9.45;5.95;;;25.40;70.10;;;;;;5051773;28;20395;-51
2021/10/30 13:49:07;;;;;;;9.30;5.75;;;24.80;70.40;;;;;;5051048;28;20040;-48
2021/10/30 13:52:13;;;;;;;12.15;5.85;;;23.60;73.10;;;;;;5050443;28;20047;-48
2021/10/30 13:55:20;;;;;;;10.10;6.35;;;23.30;73.90;;;;;;5051780;28;20047;-47
2021/10/30 13:58:23;;;;;;;12.27;6.63;;;22.50;76.60;;;;;;5050425;28;20522;-49
2021/10/30 14:01:27;;;;;;;9.52;6.47;;;22.10;77.00;;;;;;5050613;28;20043;-47
2021/10/30 14:04:33;;;;;;;11.93;6.80;;;22.20;77.20;;;;;;5049933;28;20052;-49
2021/10/30 14:07:38;;;;;;;10.32;6.63;;;22.00;77.70;;;;;;5051307;28;20064;-50
2021/10/30 14:10:42;;;;;;;11.48;6.50;;;21.70;79.00;;;;;;5050850;28;20052;-50
2021/10/30 14:13:45;;;;;;;9.57;5.85;;;22.10;78.60;;;;;;5050862;28;20048;-51
2021/10/30 14:16:50;;;;;;;12.40;5.90;;;22.20;76.70;;;;;;5050837;28;20057;-50
2021/10/30 14:19:54;;;;;;;9.40;6.68;;;22.10;77.40;;;;;;5050409;28;20404;-50
2021/10/30 14:22:58;;;;;;;10.05;6.20;;;21.90;78.40;;;;;;5050683;28;20060;-51
2021/10/30 14:26:02;;;;;;;9.13;6.28;;;21.80;78.70;;;;;;5049886;28;20052;-50
2021/10/30 14:29:06;;;;;;;10.10;6.40;;;21.70;78.60;;;;;;5050205;28;20044;-47
2021/10/30 14:32:10;;;;;;;11.77;6.75;;;21.80;79.70;;;;;;5050361;28;20043;-49
2021/10/30 14:35:14;;;;;;;10.07;6.60;;;21.60;79.00;;;;;;5050450;28;20056;-47
2021/10/30 14:38:18;;;;;;;13.57;7.53;;;21.50;80.20;;;;;;5050117;28;20044;-51
2021/10/30 14:41:22;;;;;;;14.90;8.02;;;21.40;80.40;;;;;;5050023;28;20514;-49
2021/10/30 14:44:27;;;;;;;21.77;8.80;;;21.30;80.40;;;;;;5049970;28;20047;-47
2021/10/30 14:47:31;;;;;;;16.90;8.30;;;21.00;81.70;;;;;;5050385;28;20043;-50
2021/10/30 14:50:39;;;;;;;12.18;6.75;;;20.80;82.60;;;;;;5050110;28;20506;-49
2021/10/30 14:53:44;;;;;;;11.30;6.50;;;20.50;83.30;;;;;;5060688;22;20038;-51
2021/10/30 14:56:48;;;;;;;10.73;6.72;;;20.40;83.70;;;;;;5029903;28;20408;-48
2021/10/30 14:59:52;;;;;;;11.63;6.35;;;20.20;84.40;;;;;;5029631;28;20048;-51
2021/10/30 15:02:57;;;;;;;16.42;6.13;;;20.10;84.80;;;;;;5029763;28;20052;-52
2021/10/30 15:06:01;;;;;;;17.33;7.70;;;20.00;85.70;;;;;;5030212;28;20040;-53
2021/10/30 15:09:05;;;;;;;20.38;7.28;;;20.00;86.00;;;;;;5029618;28;20044;-52
2021/10/30 15:12:09;;;;;;;10.23;5.80;;;20.00;85.70;;;;;;5029856;28;20044;-50
2021/10/30 15:15:13;;;;;;;8.50;5.95;;;20.20;85.00;;;;;;5030017;28;20056;-50
2021/10/30 15:18:18;;;;;;;9.02;5.85;;;20.00;84.20;;;;;;5029594;28;20511;-49
2021/10/30 15:21:21;;;;;;;10.40;5.93;;;19.90;84.50;;;;;;5029681;28;20057;-52
2021/10/30 15:24:26;;;;;;;13.27;6.53;;;19.90;85.10;;;;;;5029580;28;20068;-50
2021/10/30 15:27:30;;;;;;;8.43;5.75;;;19.70;85.60;;;;;;5029895;28;20036;-51
2021/10/30 15:30:35;;;;;;;12.88;5.85;;;19.70;85.40;;;;;;5028643;28;20044;-49
2021/10/30 15:33:40;;;;;;;14.77;6.65;;;19.60;85.50;;;;;;5028973;28;20408;-53
2021/10/30 15:36:44;;;;;;;8.55;5.88;;;19.50;85.90;;;;;;5029592;28;20519;-50
2021/10/30 15:39:48;;;;;;;13.32;6.30;;;19.30;86.10;;;;;;5029748;28;20199;-49
2021/10/30 15:42:53;;;;;;;9.63;6.10;;;19.20;86.40;;;;;;5029723;28;20048;-49
2021/10/30 15:45:57;;;;;;;12.05;6.47;;;19.10;86.50;;;;;;5029766;28;20044;-50
2021/10/30 15:49:01;;;;;;;30.48;14.50;;;18.90;87.00;;;;;;5029440;28;20523;-49
2021/10/30 15:52:05;;;;;;;126.05;46.55;;;18.70;88.80;;;;;;5029160;28;20043;-48